Time;durP1;ratioP1;P1;durP2;ratioP2;P2;SDS_P1;SDS_P2;PMS_P1;PMS_P2;Temp;Humidity;BMP_temperature;BMP_pressure;BME280_temperature;BME280_humidity;BME280_pressure;Samples;Min_cycle;Max_cycle;Signal;HPM_P1;HPM_P2
2024/01/12 00:00:46;;;;;;;34.55;18.35;;;2.40;99.90;;;;;;4144411;28;20104;-67
2024/01/12 00:02:47;;;;;;;32.75;17.75;;;2.40;99.90;;;;;;4136874;28;20038;-67
2024/01/12 00:04:47;;;;;;;33.35;17.90;;;2.40;99.90;;;;;;4149369;28;20037;-67
2024/01/12 00:06:48;;;;;;;32.53;17.70;;;2.40;99.90;;;;;;4139796;28;20030;-67
2024/01/12 00:08:49;;;;;;;40.85;20.67;;;2.40;99.90;;;;;;4139096;28;20121;-67
2024/01/12 00:10:49;;;;;;;36.25;18.65;;;2.40;99.90;;;;;;4145594;28;20034;-67
2024/01/12 00:12:50;;;;;;;37.58;19.30;;;2.40;99.90;;;;;;4145994;28;20087;-67
2024/01/12 00:14:50;;;;;;;34.25;18.60;;;2.40;99.90;;;;;;4133563;28;20033;-67
2024/01/12 00:16:51;;;;;;;34.72;18.10;;;2.40;99.90;;;;;;4139859;28;20042;-67
2024/01/12 00:18:52;;;;;;;34.75;19.17;;;2.40;99.90;;;;;;4145432;28;20046;-67
2024/01/12 00:20:52;;;;;;;36.20;18.17;;;2.40;99.90;;;;;;4145646;28;20447;-67
2024/01/12 00:22:56;;;;;;;30.95;17.13;;;2.40;99.90;;;;;;4138724;28;20045;-66
2024/01/12 00:24:56;;;;;;;35.10;18.73;;;2.40;99.90;;;;;;4144877;28;20101;-66
2024/01/12 00:26:57;;;;;;;33.03;17.23;;;2.40;99.90;;;;;;4137281;28;20041;-66
2024/01/12 00:28:57;;;;;;;37.33;18.20;;;2.40;99.90;;;;;;4145439;28;20033;-66
2024/01/12 00:30:58;;;;;;;39.28;19.65;;;2.40;99.90;;;;;;4137497;28;20033;-65
2024/01/12 00:32:59;;;;;;;39.58;19.25;;;2.40;99.90;;;;;;4141948;28;20498;-66
2024/01/12 00:34:59;;;;;;;42.67;20.55;;;2.40;99.90;;;;;;4138619;28;20049;-66
2024/01/12 00:37:00;;;;;;;32.05;17.73;;;2.40;99.90;;;;;;4138758;28;20083;-66
2024/01/12 00:39:01;;;;;;;34.20;18.17;;;2.40;99.90;;;;;;4136763;28;20038;-66
2024/01/12 00:41:02;;;;;;;40.47;18.83;;;2.40;99.90;;;;;;4140702;28;20478;-66
2024/01/12 00:43:03;;;;;;;36.50;17.52;;;2.40;99.90;;;;;;4134356;28;20089;-66
2024/01/12 00:45:04;;;;;;;38.10;18.35;;;2.40;99.90;;;;;;4138302;28;20033;-68
2024/01/12 00:47:05;;;;;;;42.85;18.45;;;2.40;99.90;;;;;;4135059;28;20045;-66
2024/01/12 00:49:05;;;;;;;37.33;18.58;;;2.50;99.90;;;;;;4135796;28;20502;-66
2024/01/12 00:51:06;;;;;;;37.75;18.55;;;2.50;99.90;;;;;;4143888;28;20041;-66
2024/01/12 00:53:06;;;;;;;35.60;18.38;;;2.50;99.90;;;;;;4145344;28;20034;-66
2024/01/12 00:55:07;;;;;;;37.80;19.90;;;2.40;99.90;;;;;;4140443;28;20494;-68
2024/01/12 00:57:08;;;;;;;39.88;20.50;;;2.50;99.90;;;;;;4132464;28;20088;-67
2024/01/12 00:59:08;;;;;;;38.05;20.42;;;2.40;99.90;;;;;;4143597;28;20030;-67
2024/01/12 01:01:09;;;;;;;41.50;19.80;;;2.40;99.90;;;;;;4144119;28;20552;-66
2024/01/12 01:03:10;;;;;;;34.42;17.45;;;2.40;99.90;;;;;;4140975;28;20034;-66
2024/01/12 01:05:11;;;;;;;44.15;22.25;;;2.40;99.90;;;;;;4142554;28;20113;-68
2024/01/12 01:07:11;;;;;;;39.40;20.52;;;2.40;99.90;;;;;;4136397;28;20434;-66
2024/01/12 01:09:12;;;;;;;41.75;19.05;;;2.40;99.90;;;;;;4133260;28;20034;-65
2024/01/12 01:11:12;;;;;;;35.00;18.88;;;2.40;99.90;;;;;;4144352;28;20033;-66
2024/01/12 01:13:14;;;;;;;34.72;18.55;;;2.40;99.90;;;;;;4144844;28;20044;-66
2024/01/12 01:15:15;;;;;;;38.03;18.73;;;2.40;99.90;;;;;;4140409;28;20030;-66
2024/01/12 01:17:15;;;;;;;38.13;18.92;;;2.40;99.90;;;;;;4143327;28;20036;-66
2024/01/12 01:19:17;;;;;;;40.92;17.75;;;2.40;99.90;;;;;;4144440;28;20037;-66
2024/01/12 01:21:17;;;;;;;37.92;18.30;;;2.40;99.90;;;;;;4142237;28;20041;-67
2024/01/12 01:23:18;;;;;;;40.47;19.65;;;2.40;99.90;;;;;;4140605;28;20045;-66
2024/01/12 01:25:19;;;;;;;38.58;18.38;;;2.40;99.90;;;;;;4141929;28;20034;-66
2024/01/12 01:27:19;;;;;;;41.00;18.92;;;2.50;99.90;;;;;;4138124;28;20034;-67
2024/01/12 01:29:20;;;;;;;35.97;18.75;;;2.40;99.90;;;;;;4143835;28;20041;-66
2024/01/12 01:31:20;;;;;;;39.75;18.02;;;2.50;99.90;;;;;;4142728;28;20038;-66
2024/01/12 01:33:21;;;;;;;37.90;19.63;;;2.50;99.90;;;;;;4140785;28;20018;-76
2024/01/12 01:35:22;;;;;;;43.33;20.73;;;2.50;99.90;;;;;;4141220;28;20033;-77
2024/01/12 01:37:22;;;;;;;42.65;19.48;;;2.50;99.90;;;;;;4141911;28;20095;-77
2024/01/12 01:39:23;;;;;;;39.70;18.45;;;2.50;99.90;;;;;;4143943;28;20038;-76
2024/01/12 01:41:23;;;;;;;38.47;18.17;;;2.50;99.90;;;;;;4143209;28;20036;-76
2024/01/12 01:43:24;;;;;;;44.83;20.73;;;2.50;99.90;;;;;;4142621;28;20061;-76
2024/01/12 01:45:24;;;;;;;38.85;18.67;;;2.50;99.90;;;;;;4139126;28;20048;-76
2024/01/12 01:47:26;;;;;;;39.67;17.92;;;2.50;99.90;;;;;;4142067;28;20034;-75
2024/01/12 01:49:27;;;;;;;36.15;18.20;;;2.50;99.90;;;;;;4149038;28;20068;-76
2024/01/12 01:51:28;;;;;;;48.80;20.70;;;2.50;99.90;;;;;;4146446;28;20033;-76
2024/01/12 01:53:29;;;;;;;49.38;20.25;;;2.50;99.90;;;;;;4144907;28;20045;-76
2024/01/12 01:55:30;;;;;;;51.63;20.85;;;2.50;99.90;;;;;;4136096;28;20068;-76
2024/01/12 01:57:32;;;;;;;41.67;18.77;;;2.50;99.90;;;;;;4130299;28;20034;-76
2024/01/12 01:59:33;;;;;;;50.10;21.50;;;2.50;99.90;;;;;;4142589;28;20117;-76
2024/01/12 02:01:33;;;;;;;41.83;20.02;;;2.50;99.90;;;;;;4137426;28;20502;-76
2024/01/12 02:03:36;;;;;;;50.05;21.08;;;2.50;99.90;;;;;;4128026;28;20080;-76
2024/01/12 02:05:37;;;;;;;48.83;20.05;;;2.60;99.90;;;;;;4136193;28;20486;-77
2024/01/12 02:07:38;;;;;;;42.47;19.73;;;2.50;99.90;;;;;;4156909;28;20026;-76
2024/01/12 02:09:39;;;;;;;46.55;20.02;;;2.60;99.90;;;;;;4144716;28;20109;-76
2024/01/12 02:11:39;;;;;;;49.22;21.17;;;2.50;99.90;;;;;;4149377;28;20080;-76
2024/01/12 02:13:41;;;;;;;49.90;21.33;;;2.60;99.90;;;;;;4144286;28;20045;-75
2024/01/12 02:15:42;;;;;;;51.50;21.42;;;2.60;99.90;;;;;;4139723;28;20117;-76
2024/01/12 02:17:43;;;;;;;42.50;19.88;;;2.50;99.90;;;;;;4134175;28;20092;-76
2024/01/12 02:19:43;;;;;;;50.05;21.67;;;2.50;99.90;;;;;;4143203;28;20041;-76
2024/01/12 02:21:44;;;;;;;44.45;20.05;;;2.60;99.90;;;;;;4143364;28;20030;-76
2024/01/12 02:23:44;;;;;;;46.35;19.65;;;2.60;99.90;;;;;;4139619;28;20037;-76
2024/01/12 02:25:45;;;;;;;48.40;20.73;;;2.60;99.90;;;;;;4135882;28;20452;-75
2024/01/12 02:27:47;;;;;;;47.80;19.52;;;2.50;99.90;;;;;;4142546;28;20033;-76
2024/01/12 02:29:51;;;;;;;48.30;20.70;;;2.50;99.90;;;;;;4144321;28;20026;-75
2024/01/12 02:31:52;;;;;;;46.38;19.95;;;2.60;99.90;;;;;;4132188;28;20038;-76
2024/01/12 02:33:52;;;;;;;47.45;20.42;;;2.60;99.90;;;;;;4142848;28;20390;-76
2024/01/12 02:35:53;;;;;;;52.53;23.17;;;2.50;99.90;;;;;;4136928;28;20087;-76
2024/01/12 02:37:54;;;;;;;49.42;21.13;;;2.60;99.90;;;;;;4141856;28;20037;-76
2024/01/12 02:39:54;;;;;;;44.72;19.75;;;2.60;99.90;;;;;;4152844;28;20081;-77
2024/01/12 02:41:57;;;;;;;49.42;21.33;;;2.60;99.90;;;;;;4144169;28;20060;-73
2024/01/12 02:43:58;;;;;;;52.28;21.52;;;2.60;99.90;;;;;;4144662;28;20045;-76
2024/01/12 02:45:58;;;;;;;43.53;20.35;;;2.60;99.90;;;;;;4138809;28;20030;-76
2024/01/12 02:47:59;;;;;;;48.88;21.42;;;2.60;99.90;;;;;;4142751;28;20061;-76
2024/01/12 02:49:59;;;;;;;52.20;20.80;;;2.60;99.90;;;;;;4143421;28;20046;-76
2024/01/12 02:52:00;;;;;;;50.10;21.75;;;2.60;99.90;;;;;;4143480;28;20037;-76
2024/01/12 02:54:01;;;;;;;53.42;22.75;;;2.60;99.90;;;;;;4143448;28;20041;-76
2024/01/12 02:56:01;;;;;;;48.22;21.35;;;2.60;99.90;;;;;;4133950;28;20049;-76
2024/01/12 02:58:02;;;;;;;48.65;21.55;;;2.60;99.90;;;;;;4137884;28;20034;-76
2024/01/12 03:00:03;;;;;;;49.50;21.67;;;2.60;99.90;;;;;;4143878;28;20454;-75
2024/01/12 03:02:03;;;;;;;55.45;23.33;;;2.60;99.90;;;;;;4143163;28;20034;-76
2024/01/12 03:04:04;;;;;;;62.00;24.83;;;2.60;99.90;;;;;;4143228;28;20451;-76
2024/01/12 03:06:06;;;;;;;51.72;21.58;;;2.60;99.90;;;;;;4134365;28;20077;-76
2024/01/12 03:08:07;;;;;;;53.38;23.35;;;2.60;99.90;;;;;;4142970;28;20044;-76
2024/01/12 03:10:08;;;;;;;45.97;20.48;;;2.60;99.90;;;;;;4157716;28;20033;-74
2024/01/12 03:12:08;;;;;;;50.35;21.90;;;2.60;99.90;;;;;;4143129;28;20034;-76
2024/01/12 03:14:09;;;;;;;55.85;22.70;;;2.60;99.90;;;;;;4143430;28;20042;-75
2024/01/12 03:16:20;;;;;;;50.88;21.55;;;2.60;99.90;;;;;;4138208;28;20120;-74
2024/01/12 03:18:21;;;;;;;49.88;22.70;;;2.60;99.90;;;;;;4135725;28;20485;-76
2024/01/12 03:20:22;;;;;;;56.58;24.98;;;2.60;99.90;;;;;;4141410;28;20145;-75
2024/01/12 03:22:23;;;;;;;57.67;23.25;;;2.60;99.90;;;;;;4135971;28;20418;-76
2024/01/12 03:24:23;;;;;;;49.90;21.02;;;2.60;99.90;;;;;;4143585;28;20093;-75
2024/01/12 03:26:24;;;;;;;47.13;20.50;;;2.60;99.90;;;;;;4132082;28;20038;-75
2024/01/12 03:28:25;;;;;;;53.20;23.83;;;2.60;99.90;;;;;;4141239;28;20030;-76
2024/01/12 03:30:25;;;;;;;52.15;22.58;;;2.60;99.90;;;;;;4141916;28;20084;-76
2024/01/12 03:32:26;;;;;;;49.83;21.73;;;2.60;99.90;;;;;;4142399;28;20049;-76
2024/01/12 03:34:26;;;;;;;55.05;23.08;;;2.60;99.90;;;;;;4142023;28;20045;-76
2024/01/12 03:36:27;;;;;;;53.65;22.75;;;2.60;99.90;;;;;;4143523;28;20032;-76
2024/01/12 03:38:28;;;;;;;50.88;22.27;;;2.60;99.90;;;;;;4146729;28;20037;-76
2024/01/12 03:40:29;;;;;;;50.28;22.25;;;2.60;99.90;;;;;;4144500;28;20454;-76
2024/01/12 03:42:29;;;;;;;51.38;22.63;;;2.60;99.90;;;;;;4146627;28;20125;-76
2024/01/12 03:44:30;;;;;;;46.30;20.67;;;2.60;99.90;;;;;;4141997;28;20095;-76
2024/01/12 03:46:30;;;;;;;54.03;23.48;;;2.60;99.90;;;;;;4138237;28;20167;-75
2024/01/12 03:48:32;;;;;;;47.65;20.98;;;2.60;99.90;;;;;;4147582;28;20048;-75
2024/01/12 03:50:32;;;;;;;57.70;24.40;;;2.60;99.90;;;;;;4132966;28;20029;-76
2024/01/12 03:52:33;;;;;;;59.90;25.05;;;2.60;99.90;;;;;;4134250;28;20026;-64
2024/01/12 03:54:34;;;;;;;55.67;24.33;;;2.60;99.90;;;;;;4145764;28;20084;-63
2024/01/12 03:56:34;;;;;;;53.40;21.55;;;2.60;99.90;;;;;;4138257;28;20030;-63
2024/01/12 03:58:38;;;;;;;53.08;22.33;;;2.60;99.90;;;;;;4135838;28;20030;-63
2024/01/12 04:00:39;;;;;;;54.67;23.85;;;2.60;99.90;;;;;;4145207;28;20089;-63
2024/01/12 04:02:40;;;;;;;52.47;22.15;;;2.60;99.90;;;;;;4146106;28;20030;-63
2024/01/12 04:04:41;;;;;;;50.58;22.65;;;2.60;99.90;;;;;;4145543;28;20030;-63
2024/01/12 04:06:42;;;;;;;52.20;22.83;;;2.60;99.90;;;;;;4128872;28;20033;-64
2024/01/12 04:08:43;;;;;;;54.30;24.40;;;2.70;99.90;;;;;;4142438;28;20044;-64
2024/01/12 04:10:43;;;;;;;51.60;23.17;;;2.60;99.90;;;;;;4144851;28;20394;-64
2024/01/12 04:12:44;;;;;;;55.15;22.48;;;2.60;99.90;;;;;;4132870;28;20053;-64
2024/01/12 04:14:48;;;;;;;53.58;22.77;;;2.60;99.90;;;;;;4141114;28;20026;-63
2024/01/12 04:16:48;;;;;;;50.45;22.92;;;2.70;99.90;;;;;;4141088;28;20030;-63
2024/01/12 04:18:49;;;;;;;54.80;23.55;;;2.60;99.90;;;;;;4145190;28;20022;-64
2024/01/12 04:20:49;;;;;;;57.53;24.55;;;2.60;99.90;;;;;;4144390;28;20080;-64
2024/01/12 04:22:50;;;;;;;51.20;22.55;;;2.70;99.90;;;;;;4145857;28;20033;-64
2024/01/12 04:24:50;;;;;;;50.75;21.98;;;2.70;99.90;;;;;;4142881;28;20033;-63
2024/01/12 04:26:51;;;;;;;62.80;25.20;;;2.60;99.90;;;;;;4142425;28;20030;-63
2024/01/12 04:28:52;;;;;;;52.78;22.90;;;2.60;99.90;;;;;;4145477;28;20140;-63
2024/01/12 04:30:52;;;;;;;56.10;22.05;;;2.70;99.90;;;;;;4144230;28;20046;-63
2024/01/12 04:32:53;;;;;;;50.22;22.00;;;2.60;99.90;;;;;;4145743;28;20069;-63
2024/01/12 04:34:53;;;;;;;51.22;22.85;;;2.70;99.90;;;;;;4143010;28;20038;-63
2024/01/12 04:36:55;;;;;;;50.17;22.70;;;2.70;99.90;;;;;;4138536;28;20407;-63
2024/01/12 04:38:57;;;;;;;51.25;22.38;;;2.70;99.90;;;;;;4147668;28;20048;-63
2024/01/12 04:40:58;;;;;;;51.75;21.05;;;2.70;99.90;;;;;;4145740;28;20030;-63
2024/01/12 04:42:58;;;;;;;57.30;23.88;;;2.60;99.90;;;;;;4145678;28;20057;-64
2024/01/12 04:44:59;;;;;;;55.58;23.98;;;2.70;99.90;;;;;;4142074;28;20027;-63
2024/01/12 04:46:59;;;;;;;57.00;23.20;;;2.70;99.90;;;;;;4135443;28;20110;-63
2024/01/12 04:49:00;;;;;;;55.05;22.50;;;2.70;99.90;;;;;;4129514;28;20510;-63
2024/01/12 04:51:01;;;;;;;52.42;22.85;;;2.70;99.90;;;;;;4138136;28;20022;-63
2024/01/12 04:53:01;;;;;;;51.80;21.95;;;2.70;99.90;;;;;;4146069;28;20034;-63
2024/01/12 04:55:02;;;;;;;57.13;22.65;;;2.70;99.90;;;;;;4142066;28;20463;-63
2024/01/12 04:57:03;;;;;;;59.42;25.73;;;2.70;99.90;;;;;;4139816;28;20035;-63
2024/01/12 04:59:03;;;;;;;62.22;23.60;;;2.70;99.90;;;;;;4140619;28;20498;-63
2024/01/12 05:01:04;;;;;;;52.20;22.65;;;2.70;99.90;;;;;;4134558;28;20506;-63
2024/01/12 05:03:05;;;;;;;56.15;23.25;;;2.70;99.90;;;;;;4144622;28;20140;-74
2024/01/12 05:05:07;;;;;;;61.25;25.60;;;2.70;99.90;;;;;;4143047;28;20115;-75
2024/01/12 05:07:08;;;;;;;;;;;2.70;99.90;;;;;;4138053;28;20040;-75
2024/01/12 05:09:08;;;;;;;62.72;23.98;;;2.70;99.90;;;;;;4138947;28;19953;-74
2024/01/12 05:11:09;;;;;;;56.05;23.48;;;2.70;99.90;;;;;;4133790;28;20042;-75
2024/01/12 05:13:09;;;;;;;58.70;23.60;;;2.70;99.90;;;;;;4132087;28;20042;-69
2024/01/12 05:15:10;;;;;;;62.92;24.63;;;2.60;99.90;;;;;;4137276;28;20038;-70
2024/01/12 05:17:10;;;;;;;57.78;24.35;;;2.60;99.90;;;;;;4143810;28;20109;-69
2024/01/12 05:19:11;;;;;;;59.65;24.02;;;2.60;99.90;;;;;;4143825;28;20053;-69
2024/01/12 05:21:12;;;;;;;56.17;22.98;;;2.70;99.90;;;;;;4141293;28;20490;-71
2024/01/12 05:23:12;;;;;;;81.95;30.27;;;2.70;99.90;;;;;;4142100;28;20030;-75
2024/01/12 05:25:14;;;;;;;61.05;25.73;;;2.70;99.90;;;;;;4144314;28;20049;-74
2024/01/12 05:27:14;;;;;;;59.45;22.73;;;2.70;99.90;;;;;;4141135;28;20410;-74
2024/01/12 05:29:15;;;;;;;66.45;25.17;;;2.70;99.90;;;;;;4139309;28;20038;-75
2024/01/12 05:31:15;;;;;;;56.80;23.23;;;2.70;99.90;;;;;;4140199;28;20568;-74
2024/01/12 05:33:16;;;;;;;54.15;22.42;;;2.70;99.90;;;;;;4143455;28;20467;-75
2024/01/12 05:35:17;;;;;;;59.47;23.25;;;2.70;99.90;;;;;;4140341;28;20292;-74
2024/01/12 05:37:17;;;;;;;50.83;21.60;;;2.70;99.90;;;;;;4135662;28;20407;-75
2024/01/12 05:39:18;;;;;;;61.42;24.83;;;2.70;99.90;;;;;;4141662;28;20490;-75
2024/01/12 05:41:18;;;;;;;61.35;23.50;;;2.70;99.90;;;;;;4140794;28;20036;-74
2024/01/12 05:43:19;;;;;;;53.28;22.92;;;2.70;99.90;;;;;;4144689;28;20040;-74
2024/01/12 05:45:20;;;;;;;64.70;26.27;;;2.70;99.90;;;;;;4138820;28;20069;-75
2024/01/12 05:47:21;;;;;;;60.28;24.23;;;2.70;99.90;;;;;;4143661;28;20037;-75
2024/01/12 05:49:21;;;;;;;56.08;23.02;;;2.70;99.90;;;;;;4144076;28;20061;-75
2024/01/12 05:51:22;;;;;;;57.88;23.20;;;2.70;99.90;;;;;;4144200;28;20114;-75
2024/01/12 05:53:25;;;;;;;58.78;24.13;;;2.70;99.90;;;;;;4143424;28;20034;-76
2024/01/12 05:55:26;;;;;;;55.15;22.38;;;2.70;99.90;;;;;;4136400;28;20038;-75
2024/01/12 05:57:26;;;;;;;53.85;22.55;;;2.70;99.90;;;;;;4140575;28;20071;-76
2024/01/12 05:59:27;;;;;;;52.47;21.92;;;2.80;99.90;;;;;;4140502;28;20538;-76
2024/01/12 06:01:28;;;;;;;62.10;24.33;;;2.70;99.90;;;;;;4138902;28;20034;-75
2024/01/12 06:03:28;;;;;;;52.83;23.40;;;2.80;99.90;;;;;;4139763;28;20046;-75
2024/01/12 06:05:29;;;;;;;58.92;23.35;;;2.80;99.90;;;;;;4137511;28;20041;-75
2024/01/12 06:07:29;;;;;;;56.10;22.13;;;2.80;99.90;;;;;;4137913;28;20036;-75
2024/01/12 06:09:30;;;;;;;60.03;22.58;;;2.70;99.90;;;;;;4141777;28;20037;-75
2024/01/12 06:11:30;;;;;;;51.45;21.75;;;2.80;99.90;;;;;;4139704;28;20514;-76
2024/01/12 06:13:31;;;;;;;60.83;24.35;;;2.80;99.90;;;;;;4142369;28;20371;-76
2024/01/12 06:15:32;;;;;;;57.95;23.02;;;2.80;99.90;;;;;;4138095;28;20037;-76
2024/01/12 06:17:32;;;;;;;58.65;23.00;;;2.80;99.90;;;;;;4126623;28;20034;-76
2024/01/12 06:19:33;;;;;;;55.97;23.83;;;2.80;99.90;;;;;;4141102;28;20581;-76
2024/01/12 06:21:34;;;;;;;65.13;24.98;;;2.80;99.90;;;;;;4137709;28;20041;-75
2024/01/12 06:23:34;;;;;;;59.67;22.95;;;2.80;99.90;;;;;;4134200;28;20052;-76
2024/01/12 06:25:38;;;;;;;56.03;22.77;;;2.80;99.90;;;;;;4140020;28;20026;-76
2024/01/12 06:27:41;;;;;;;53.42;22.83;;;2.80;99.90;;;;;;4141055;28;20034;-75
2024/01/12 06:29:41;;;;;;;53.38;22.45;;;2.80;99.90;;;;;;4143239;28;20038;-76
2024/01/12 06:31:42;;;;;;;59.22;21.63;;;2.80;99.90;;;;;;4133043;28;20041;-76
2024/01/12 06:33:42;;;;;;;59.95;24.77;;;2.80;99.90;;;;;;4143735;28;20513;-66
2024/01/12 06:35:43;;;;;;;59.65;23.38;;;2.80;99.90;;;;;;4143121;28;20394;-66
2024/01/12 06:37:43;;;;;;;61.22;24.90;;;2.80;99.90;;;;;;4138599;28;20104;-66
2024/01/12 06:39:44;;;;;;;55.42;23.38;;;2.80;99.90;;;;;;4139897;28;20060;-67
2024/01/12 06:41:46;;;;;;;51.25;21.75;;;2.80;99.90;;;;;;4141897;28;20034;-66
2024/01/12 06:43:47;;;;;;;55.08;22.02;;;2.80;99.90;;;;;;4139630;28;20105;-66
2024/01/12 06:45:47;;;;;;;62.03;24.83;;;2.80;99.90;;;;;;4139208;28;20098;-66
2024/01/12 06:47:48;;;;;;;56.30;23.55;;;2.80;99.90;;;;;;4136211;28;20049;-66
2024/01/12 06:49:48;;;;;;;59.33;24.75;;;2.80;99.90;;;;;;4135708;28;20041;-66
2024/01/12 06:51:49;;;;;;;56.83;22.85;;;2.80;99.90;;;;;;4124880;28;20042;-68
2024/01/12 06:53:50;;;;;;;72.18;28.77;;;2.70;99.90;;;;;;4132827;28;20033;-66
2024/01/12 06:55:50;;;;;;;58.17;23.08;;;2.80;99.90;;;;;;4140450;28;20105;-66
2024/01/12 06:57:51;;;;;;;73.80;27.25;;;2.80;99.90;;;;;;4136898;28;20038;-67
2024/01/12 06:59:51;;;;;;;61.35;24.20;;;2.80;99.90;;;;;;4142774;28;20038;-66
2024/01/12 07:01:52;;;;;;;52.75;22.10;;;2.80;99.90;;;;;;4142695;28;20042;-66
2024/01/12 07:03:52;;;;;;;61.67;25.38;;;2.80;99.90;;;;;;4141778;28;20128;-66
2024/01/12 07:05:53;;;;;;;56.05;23.55;;;2.80;99.90;;;;;;4136845;28;20034;-66
2024/01/12 07:07:53;;;;;;;69.15;26.52;;;2.80;99.90;;;;;;4147862;28;20482;-66
2024/01/12 07:09:54;;;;;;;64.75;25.17;;;2.80;99.90;;;;;;4138811;28;20034;-66
2024/01/12 07:11:55;;;;;;;58.95;24.70;;;2.80;99.90;;;;;;4141016;28;20088;-66
2024/01/12 07:13:55;;;;;;;57.97;25.15;;;2.80;99.90;;;;;;4135406;28;20038;-66
2024/01/12 07:15:56;;;;;;;63.63;24.83;;;2.80;99.90;;;;;;4138780;28;20052;-66
2024/01/12 07:17:58;;;;;;;55.83;23.40;;;2.80;99.90;;;;;;4147538;28;20045;-66
2024/01/12 07:19:59;;;;;;;60.07;24.90;;;2.80;99.90;;;;;;4138989;28;20458;-66
2024/01/12 07:21:59;;;;;;;57.72;23.45;;;2.80;99.90;;;;;;4144627;28;20261;-66
2024/01/12 07:24:01;;;;;;;56.65;22.92;;;2.80;99.90;;;;;;4159781;28;20433;-66
2024/01/12 07:26:01;;;;;;;52.80;22.05;;;2.80;99.90;;;;;;4143668;28;20603;-66
2024/01/12 07:28:03;;;;;;;51.17;23.08;;;2.80;99.90;;;;;;4145965;28;20124;-66
2024/01/12 07:30:05;;;;;;;77.10;28.58;;;2.80;99.90;;;;;;4145956;28;20038;-67
2024/01/12 07:32:05;;;;;;;61.83;25.52;;;2.80;99.90;;;;;;4143842;28;20497;-66
2024/01/12 07:34:06;;;;;;;56.25;23.40;;;2.80;99.90;;;;;;4142344;28;20034;-66
2024/01/12 07:36:07;;;;;;;62.83;25.67;;;2.80;99.90;;;;;;4142421;28;20103;-67
2024/01/12 07:38:09;;;;;;;57.28;24.13;;;2.80;99.90;;;;;;4145091;28;20129;-63
2024/01/12 07:40:10;;;;;;;68.50;25.40;;;2.80;99.90;;;;;;4141491;28;20532;-65
2024/01/12 07:42:11;;;;;;;54.85;22.45;;;2.80;99.90;;;;;;4144810;28;20100;-81
2024/01/12 07:44:12;;;;;;;52.58;22.02;;;2.80;99.90;;;;;;4144471;28;20034;-74
2024/01/12 07:46:17;;;;;;;55.42;22.38;;;2.80;99.90;;;;;;4145112;28;20041;-74
2024/01/12 07:48:18;;;;;;;51.40;22.70;;;2.80;99.90;;;;;;4144240;28;20466;-73
2024/01/12 07:50:18;;;;;;;52.63;21.13;;;2.80;99.90;;;;;;4143928;28;20037;-73
2024/01/12 07:52:19;;;;;;;58.88;25.63;;;2.80;99.90;;;;;;4144622;28;20485;-73
2024/01/12 07:54:20;;;;;;;61.80;24.02;;;2.80;99.90;;;;;;4140759;28;20053;-73
2024/01/12 07:56:20;;;;;;;52.63;20.83;;;2.80;99.90;;;;;;4144722;28;20109;-73
2024/01/12 07:58:21;;;;;;;54.53;23.77;;;2.80;99.90;;;;;;4144557;28;20046;-72
2024/01/12 08:00:22;;;;;;;55.92;21.10;;;2.80;99.90;;;;;;4143476;28;20038;-73
2024/01/12 08:02:23;;;;;;;51.67;22.13;;;2.80;99.90;;;;;;4145011;28;20084;-72
2024/01/12 08:04:24;;;;;;;56.28;23.02;;;2.80;99.90;;;;;;4136844;28;20025;-73
2024/01/12 08:06:24;;;;;;;58.20;23.70;;;2.80;99.90;;;;;;4151157;28;20092;-74
2024/01/12 08:08:25;;;;;;;53.35;22.25;;;2.80;99.90;;;;;;4143195;28;20131;-74
2024/01/12 08:10:25;;;;;;;52.97;22.35;;;2.80;99.90;;;;;;4140115;28;20065;-74
2024/01/12 08:12:26;;;;;;;54.40;22.80;;;2.80;99.90;;;;;;4145481;28;20026;-73
2024/01/12 08:14:26;;;;;;;54.22;23.08;;;2.80;99.90;;;;;;4145179;28;20034;-73
2024/01/12 08:16:27;;;;;;;55.72;23.38;;;2.80;99.90;;;;;;4146146;28;20029;-74
2024/01/12 08:18:29;;;;;;;53.53;22.42;;;2.80;99.90;;;;;;4145607;28;20042;-73
2024/01/12 08:20:29;;;;;;;59.72;24.38;;;2.90;99.90;;;;;;4144110;28;21009;-74
2024/01/12 08:22:32;;;;;;;50.30;21.67;;;2.80;99.90;;;;;;4144649;28;20030;-74
2024/01/12 08:24:32;;;;;;;;;;;2.80;99.90;;;;;;4146041;28;20037;-73
2024/01/12 08:26:33;;;;;;;51.80;21.80;;;2.80;99.90;;;;;;4145030;28;19910;-74
2024/01/12 08:28:33;;;;;;;51.58;22.00;;;2.80;99.90;;;;;;4144422;28;20033;-73
2024/01/12 08:30:34;;;;;;;53.10;21.73;;;2.80;99.90;;;;;;4144582;28;20037;-73
2024/01/12 08:32:35;;;;;;;50.50;21.30;;;2.80;99.90;;;;;;4139652;28;20029;-73
2024/01/12 08:34:35;;;;;;;54.58;23.42;;;2.80;99.90;;;;;;4141240;28;20129;-74
2024/01/12 08:36:36;;;;;;;48.22;22.38;;;2.80;99.90;;;;;;4143101;28;20026;-73
2024/01/12 08:38:37;;;;;;;54.22;22.35;;;2.80;99.90;;;;;;4141832;28;20022;-73
2024/01/12 08:40:37;;;;;;;53.60;22.15;;;2.80;99.90;;;;;;4140481;28;20127;-73
2024/01/12 08:42:39;;;;;;;48.58;21.52;;;2.80;99.90;;;;;;4143253;28;20033;-73
2024/01/12 08:44:40;;;;;;;50.80;22.77;;;2.80;99.90;;;;;;4139096;28;20058;-70
2024/01/12 08:46:40;;;;;;;46.28;21.10;;;2.90;99.90;;;;;;4141332;28;20029;-70
2024/01/12 08:48:41;;;;;;;44.88;20.83;;;2.90;99.90;;;;;;4141075;28;20081;-70
2024/01/12 08:50:42;;;;;;;45.30;20.90;;;2.90;99.90;;;;;;4140027;28;20030;-72
2024/01/12 08:52:43;;;;;;;46.60;20.98;;;2.90;99.90;;;;;;4142120;28;20030;-73
2024/01/12 08:54:44;;;;;;;44.38;20.45;;;2.90;99.90;;;;;;4144415;28;20474;-73
2024/01/12 08:56:45;;;;;;;49.92;21.63;;;2.90;99.90;;;;;;4142576;28;20120;-72
2024/01/12 08:58:45;;;;;;;44.10;21.48;;;2.90;99.90;;;;;;4143708;28;20034;-72
2024/01/12 09:00:46;;;;;;;44.65;21.52;;;2.90;99.90;;;;;;4142212;28;20137;-71
2024/01/12 09:02:46;;;;;;;53.22;21.70;;;3.00;99.90;;;;;;4142702;28;20029;-72
2024/01/12 09:04:47;;;;;;;49.88;21.42;;;3.00;99.90;;;;;;4144266;28;20030;-71
2024/01/12 09:06:48;;;;;;;43.20;20.33;;;3.00;99.90;;;;;;4144089;28;20041;-68
2024/01/12 09:08:48;;;;;;;51.10;22.25;;;2.90;99.90;;;;;;4140943;28;20037;-72
2024/01/12 09:10:49;;;;;;;50.50;20.83;;;2.90;99.90;;;;;;4134626;28;20031;-71
2024/01/12 09:12:50;;;;;;;45.55;20.77;;;3.00;99.90;;;;;;4142115;28;20079;-71
2024/01/12 09:14:52;;;;;;;49.17;21.67;;;3.00;99.90;;;;;;4144185;28;20061;-73
2024/01/12 09:16:52;;;;;;;44.67;21.27;;;3.00;99.90;;;;;;4134471;28;20034;-71
2024/01/12 09:18:53;;;;;;;41.95;20.95;;;2.90;99.90;;;;;;4143013;28;20133;-71
2024/01/12 09:20:53;;;;;;;46.80;22.38;;;3.00;99.90;;;;;;4143258;28;20041;-72
2024/01/12 09:22:54;;;;;;;45.22;21.52;;;3.00;99.90;;;;;;4141732;28;20053;-72
2024/01/12 09:24:55;;;;;;;41.13;20.33;;;3.00;99.90;;;;;;4143066;28;20065;-73
2024/01/12 09:26:55;;;;;;;42.30;19.23;;;3.00;99.90;;;;;;4142161;28;20386;-73
2024/01/12 09:28:56;;;;;;;43.03;19.60;;;3.00;99.90;;;;;;4127662;28;20050;-73
2024/01/12 09:30:56;;;;;;;49.10;20.02;;;3.00;99.90;;;;;;4143321;28;20121;-72
2024/01/12 09:32:57;;;;;;;44.83;20.88;;;3.00;99.90;;;;;;4144618;28;20073;-72
2024/01/12 09:34:57;;;;;;;37.80;18.05;;;3.00;99.90;;;;;;4138746;28;20034;-72
2024/01/12 09:36:58;;;;;;;32.75;16.35;;;3.00;99.90;;;;;;4137149;28;20513;-72
2024/01/12 09:38:58;;;;;;;32.47;15.85;;;3.00;99.90;;;;;;4139485;28;20491;-72
2024/01/12 09:41:02;;;;;;;33.53;17.23;;;3.00;99.90;;;;;;4142135;28;20394;-73
2024/01/12 09:43:07;;;;;;;35.08;17.27;;;3.00;99.90;;;;;;4139118;28;20073;-73
2024/01/12 09:45:12;;;;;;;32.30;15.43;;;3.10;99.90;;;;;;4137045;28;20398;-73
2024/01/12 09:47:13;;;;;;;28.40;14.43;;;3.10;99.90;;;;;;4136503;28;20139;-73
2024/01/12 09:49:13;;;;;;;37.20;18.20;;;3.10;99.90;;;;;;4139756;28;20073;-72
2024/01/12 09:51:16;;;;;;;37.38;17.30;;;3.10;99.90;;;;;;4142172;28;20112;-73
2024/01/12 09:53:17;;;;;;;37.95;17.35;;;3.10;99.90;;;;;;4140600;28;20120;-70
2024/01/12 09:55:18;;;;;;;39.03;16.67;;;3.10;99.90;;;;;;4141896;28;20038;-73
2024/01/12 09:57:19;;;;;;;36.28;17.27;;;3.10;99.90;;;;;;4141842;28;20029;-73
2024/01/12 09:59:22;;;;;;;30.93;15.30;;;3.10;99.90;;;;;;4143473;28;20175;-72
2024/01/12 10:01:23;;;;;;;36.42;17.85;;;3.10;99.90;;;;;;4141323;28;20030;-72
2024/01/12 10:03:25;;;;;;;37.22;16.98;;;3.10;99.90;;;;;;4143587;28;20076;-77
2024/01/12 10:05:26;;;;;;;34.15;16.40;;;3.10;99.90;;;;;;4144126;28;20034;-76
2024/01/12 10:07:27;;;;;;;33.30;16.05;;;3.10;99.90;;;;;;4143498;28;20038;-76
2024/01/12 10:09:28;;;;;;;34.30;15.95;;;3.10;99.90;;;;;;4142286;28;20046;-76
2024/01/12 10:11:28;;;;;;;34.05;15.98;;;3.10;99.90;;;;;;4132758;28;20044;-77
2024/01/12 10:13:29;;;;;;;34.15;15.15;;;3.10;99.90;;;;;;4142514;28;20132;-77
2024/01/12 10:15:30;;;;;;;32.20;14.77;;;3.20;99.90;;;;;;4142896;28;20038;-76
2024/01/12 10:17:31;;;;;;;30.60;14.48;;;3.20;99.90;;;;;;4141802;28;20505;-76
2024/01/12 10:19:31;;;;;;;33.50;15.40;;;3.10;99.90;;;;;;4140715;28;20482;-78
2024/01/12 10:21:39;;;;;;;29.27;13.63;;;3.10;99.90;;;;;;4143253;28;20059;-77